»·PEaware :: N45PM KSBP-KBFL

N45PM :: KSBP-KBFL

FLIGHT INFORMATION

Flight Status: Arrived
Operator: Privately registered:
United States
More flights under this callsign
Pilot: Robby P. (27385)
Aircraft: BEECH AIRCRAFT BARON
(BE58)
More flights by this aircraft type
Origin: KSBP San Luis Co Regl
United States
Destination: KBFL Meadows
United States
More flights between these airports :: More routes between these airports
Route:
File this flight plan on PilotEdge
Remarks:
Altitude:
(Current/Filed)
7,500ft
Speed:
(Current/Filed)
160kts
Departed: 09-Feb-20 03:26 PM
Arrived: 09-Feb-20 04:08 PM
Distance/Time
Traveled:
79nm/0:41
Distance/Time
To Go:
Arrived

Flight Plot

Page will automatically refresh every two minutes.


Map Options




Map Legend


Flown Route
Filed Route
Departure Airport
Arrival Airport
Navaid (VOR, NDB)
Fix

Horizontal Profiles

Position Reports

Time Latitude Longitude Heading Altitude Ground
Speed
09-Feb-20 15:15 35.238396 -120.639814 311 216ft 0kts
09-Feb-20 15:16 35.238396 -120.639814 311 216ft 0kts
09-Feb-20 15:17 35.238396 -120.639814 311 216ft 0kts
09-Feb-20 15:18 35.238407 -120.639834 299 216ft 1kts
09-Feb-20 15:19 35.236486 -120.637541 125 216ft 14kts
09-Feb-20 15:20 35.234016 -120.633272 123 216ft 16kts
09-Feb-20 15:21 35.233338 -120.632315 181 216ft 0kts
09-Feb-20 15:22 35.233338 -120.632315 181 216ft 0kts
09-Feb-20 15:23 35.233338 -120.632315 181 216ft 0kts
09-Feb-20 15:24 35.232861 -120.632947 281 216ft 20kts
09-Feb-20 15:25 35.245775 -120.656767 305 572ft 133kts
09-Feb-20 15:26 35.239145 -120.689386 159 1681ft 159kts
09-Feb-20 15:27 35.208810 -120.650275 93 2633ft 148kts
09-Feb-20 15:28 35.229341 -120.611805 50 3707ft 134kts
09-Feb-20 15:29 35.244404 -120.570966 71 4781ft 131kts
09-Feb-20 15:30 35.252247 -120.527942 77 5769ft 128kts
09-Feb-20 15:31 35.258276 -120.485350 79 6670ft 126kts
09-Feb-20 15:32 35.263897 -120.442652 80 7420ft 130kts
09-Feb-20 15:33 35.270297 -120.392999 80 7417ft 156kts
09-Feb-20 15:34 35.267203 -120.418201 80 7341ft 163kts
09-Feb-20 15:35 35.274064 -120.363762 79 7351ft 162kts
09-Feb-20 15:36 35.280992 -120.309375 80 7360ft 162kts
09-Feb-20 15:37 35.287914 -120.254980 80 7359ft 162kts
09-Feb-20 15:38 35.294728 -120.201239 80 7358ft 162kts
09-Feb-20 15:39 35.301643 -120.146496 79 7357ft 162kts
09-Feb-20 15:40 35.307817 -120.097453 79 7356ft 162kts
09-Feb-20 15:41 35.315096 -120.040034 85 7351ft 177kts
09-Feb-20 15:42 35.322571 -119.979616 85 7335ft 183kts
09-Feb-20 15:43 35.330103 -119.919039 85 7361ft 182kts
09-Feb-20 15:44 35.337248 -119.860748 80 7362ft 166kts
09-Feb-20 15:45 35.344136 -119.805659 81 7376ft 161kts
09-Feb-20 15:46 35.350844 -119.751189 81 7392ft 161kts
09-Feb-20 15:47 35.357506 -119.696680 81 7394ft 162kts
09-Feb-20 15:48 35.364166 -119.642039 81 7393ft 162kts
09-Feb-20 15:49 35.370798 -119.587471 81 7348ft 161kts
09-Feb-20 15:50 35.377541 -119.531652 80 6004ft 167kts
09-Feb-20 15:51 35.384187 -119.476574 79 5132ft 148kts
09-Feb-20 15:52 35.389564 -119.431821 79 5189ft 122kts
09-Feb-20 15:53 35.394360 -119.391800 79 5223ft 116kts
09-Feb-20 15:54 35.399167 -119.352102 79 5270ft 124kts
09-Feb-20 15:55 35.404344 -119.308576 79 5128ft 125kts
09-Feb-20 15:56 35.409072 -119.268326 80 5252ft 122kts
09-Feb-20 15:57 35.414004 -119.226601 80 5233ft 124kts
09-Feb-20 15:58 35.408380 -119.273281 79 5185ft 126kts
09-Feb-20 15:59 35.404409 -119.311589 82 5223ft 125kts
09-Feb-20 16:00 35.408913 -119.269793 80 5230ft 124kts
09-Feb-20 16:01 35.414355 -119.223210 79 4393ft 138kts
09-Feb-20 16:02 35.419511 -119.177323 78 3785ft 142kts
09-Feb-20 16:03 35.420430 -119.129753 95 3274ft 141kts
09-Feb-20 16:04 35.406131 -119.085799 117 2896ft 149kts
09-Feb-20 16:05 35.403548 -119.043589 54 1969ft 145kts
09-Feb-20 16:06 35.427996 -119.049336 319 607ft 101kts
09-Feb-20 16:07 35.436137 -119.058027 38 510ft 0kts
09-Feb-20 16:08 35.436195 -119.057958 47 510ft 0kts
09-Feb-20 16:09 35.436168 -119.056777 129 510ft 10kts
09-Feb-20 16:10 35.433203 -119.053198 135 510ft 19kts
09-Feb-20 16:11 35.431585 -119.049651 122 510ft 6kts
09-Feb-20 16:12 35.431464 -119.048823 295 510ft 0kts
09-Feb-20 16:13 35.431465 -119.048824 300 510ft 0kts
09-Feb-20 16:14 35.431465 -119.048824 300 510ft 0kts
09-Feb-20 16:15 35.431465 -119.048826 307 510ft 0kts
09-Feb-20 16:16 35.431465 -119.048826 307 510ft 0kts
09-Feb-20 16:17 35.431465 -119.048826 307 510ft 0kts
09-Feb-20 16:18 35.431465 -119.048826 307 510ft 0kts
09-Feb-20 16:19 35.431465 -119.048826 307 510ft 0kts
09-Feb-20 16:20 35.431465 -119.048826 307 510ft 0kts
09-Feb-20 16:21 35.431465 -119.048826 307 510ft 0kts

Navigation Log

Ident Type
Flight plan parsing failed, navigation log unavailable